Time;durP1;ratioP1;P1;durP2;ratioP2;P2;SDS_P1;SDS_P2;PMS_P1;PMS_P2;Temp;Humidity;BMP_temperature;BMP_pressure;BME280_temperature;BME280_humidity;BME280_pressure;Samples;Min_cycle;Max_cycle;Signal;HPM_P1;HPM_P2
2021/01/05 00:00:16;;;;;;;14.82;11.05;;;;;;;6.34;79.93;99884.53;5076712;28;20029;-72
2021/01/05 00:02:43;;;;;;;19.40;10.93;;;;;;;6.04;80.50;99846.81;5075422;28;20094;-72
2021/01/05 00:05:13;;;;;;;13.73;8.73;;;;;;;6.18;81.40;99870.56;5075306;28;20024;-72
2021/01/05 00:07:39;;;;;;;24.88;13.48;;;;;;;6.20;82.09;99876.56;5075406;28;20033;-72
2021/01/05 00:10:06;;;;;;;18.42;13.05;;;;;;;6.07;81.69;99878.47;5075651;28;20031;-72
2021/01/05 00:12:32;;;;;;;11.93;9.35;;;;;;;5.89;81.95;99888.03;5075143;28;20097;-73
2021/01/05 00:14:57;;;;;;;13.23;10.10;;;;;;;5.85;81.77;99887.09;5075075;28;20486;-72
2021/01/05 00:17:23;;;;;;;14.10;11.80;;;;;;;5.93;81.09;99883.50;5075139;28;20065;-72
2021/01/05 00:19:52;;;;;;;14.18;12.18;;;;;;;5.93;80.89;99884.28;5075178;28;20090;-73
2021/01/05 00:22:18;;;;;;;19.48;13.93;;;;;;;5.88;80.99;99886.44;5075054;28;20029;-73
2021/01/05 00:24:44;;;;;;;18.60;14.82;;;;;;;5.84;81.67;99886.28;5075698;28;20047;-72
2021/01/05 00:27:13;;;;;;;22.02;17.08;;;;;;;5.97;81.79;99889.97;5074965;28;20471;-72
2021/01/05 00:29:39;;;;;;;18.35;13.52;;;;;;;5.91;81.15;99880.22;5076335;28;20412;-72
2021/01/05 00:32:16;;;;;;;17.98;12.88;;;;;;;5.79;82.78;99887.28;5075226;28;20028;-73
2021/01/05 00:34:43;;;;;;;19.50;12.20;;;;;;;5.83;83.02;99889.41;5074869;28;20115;-72
2021/01/05 00:37:09;;;;;;;18.52;13.40;;;;;;;5.69;83.39;99873.91;5075011;28;20032;-73
2021/01/05 00:39:35;;;;;;;17.98;13.55;;;;;;;5.72;82.75;99877.97;5077539;28;20050;-72
2021/01/05 00:42:01;;;;;;;24.77;16.10;;;;;;;5.63;82.85;99875.25;5078760;28;20032;-73
2021/01/05 00:44:26;;;;;;;16.23;12.55;;;;;;;5.62;82.64;99873.66;5078904;28;20042;-72
2021/01/05 00:46:52;;;;;;;15.25;11.27;;;;;;;5.61;82.82;99877.56;5078344;28;20440;-73
2021/01/05 00:49:18;;;;;;;14.50;12.05;;;;;;;5.64;83.47;99879.63;5077840;28;20027;-73
2021/01/05 00:51:44;;;;;;;16.92;12.07;;;;;;;5.70;83.34;99892.09;5077784;28;20035;-72
2021/01/05 00:54:10;;;;;;;18.65;13.25;;;;;;;5.73;83.22;99885.91;5078293;28;20050;-72
2021/01/05 00:56:36;;;;;;;14.63;12.43;;;;;;;5.73;83.31;99879.56;5077532;28;20027;-73
2021/01/05 00:59:02;;;;;;;14.27;10.55;;;;;;;5.83;82.99;99889.41;5077477;28;20039;-72
2021/01/05 01:01:28;;;;;;;15.85;10.93;;;;;;;5.77;83.17;99883.28;5077219;28;20028;-73
2021/01/05 01:03:54;;;;;;;16.58;11.63;;;;;;;5.78;82.78;99882.94;5076541;28;20085;-72
2021/01/05 01:06:20;;;;;;;16.65;11.50;;;;;;;5.83;82.62;99883.88;5077663;28;20055;-73
2021/01/05 01:08:46;;;;;;;14.77;10.82;;;;;;;5.81;83.20;99881.47;5077895;28;20028;-73
2021/01/05 01:11:13;;;;;;;13.45;10.65;;;;;;;5.96;82.45;99888.31;5077566;28;20122;-73
2021/01/05 01:13:39;;;;;;;12.40;10.32;;;;;;;5.85;82.42;99881.56;5077815;28;20043;-73
2021/01/05 01:16:05;;;;;;;15.68;10.65;;;;;;;5.86;83.14;99872.13;5060678;28;20036;-72
2021/01/05 01:18:34;;;;;;;13.27;10.75;;;;;;;5.91;83.33;99869.16;5077402;28;20444;-73
2021/01/05 01:21:01;;;;;;;12.60;9.63;;;;;;;5.83;83.38;99875.59;5077059;28;20028;-72
2021/01/05 01:23:26;;;;;;;10.93;9.10;;;;;;;5.86;83.56;99869.38;5060596;28;20038;-73
2021/01/05 01:25:52;;;;;;;14.77;9.25;;;;;;;5.81;83.16;99880.66;5077136;28;20024;-73
2021/01/05 01:28:18;;;;;;;11.50;9.38;;;;;;;5.79;83.50;99873.50;5077334;28;20032;-72
2021/01/05 01:30:43;;;;;;;13.10;8.95;;;;;;;5.78;82.69;99873.84;5077311;28;20032;-72
2021/01/05 01:33:09;;;;;;;11.07;9.27;;;;;;;5.76;82.97;99867.84;5077172;28;20415;-73
2021/01/05 01:35:35;;;;;;;12.32;9.10;;;;;;;5.85;83.05;99859.47;5077572;28;20028;-73
2021/01/05 01:38:03;;;;;;;11.25;8.93;;;;;;;5.76;82.15;99859.59;5078366;28;20038;-73
2021/01/05 01:40:42;;;;;;;15.25;9.68;;;;;;;5.65;82.71;99855.63;5078555;28;20051;-74
2021/01/05 01:43:09;;;;;;;10.32;8.43;;;;;;;5.44;83.39;99833.56;5081574;28;20055;-73
2021/01/05 01:45:35;;;;;;;9.52;7.15;;;;;;;5.52;83.25;99843.69;5067005;28;20074;-75
2021/01/05 01:48:08;;;;;;;9.35;7.95;;;;;;;5.56;83.52;99847.41;5080955;28;20476;-73
2021/01/05 01:50:35;;;;;;;5.95;4.88;;;;;;;5.52;82.47;99838.19;5077301;28;20032;-73
2021/01/05 01:53:09;;;;;;;6.95;4.78;;;;;;;5.47;82.62;99841.13;5095384;28;20032;-72
2021/01/05 01:55:53;;;;;;;5.68;5.18;;;;;;;5.57;82.17;99837.97;5076915;28;20122;-72
2021/01/05 01:58:42;;;;;;;7.03;5.78;;;;;;;5.56;82.84;99847.41;5077310;28;20028;-73
2021/01/05 02:01:25;;;;;;;5.85;4.72;;;;;;;5.62;82.60;99840.53;5048069;28;20067;-73
2021/01/05 02:04:00;;;;;;;7.90;4.20;;;;;;;5.45;82.93;99827.69;5077145;28;20070;-73
2021/01/05 02:06:44;;;;;;;4.20;3.60;;;;;;;5.61;82.60;99841.69;5094146;28;20120;-72
2021/01/05 02:09:37;;;;;;;11.68;3.83;;;;;;;5.61;82.44;99833.41;5076329;28;20024;-73
2021/01/05 02:12:19;;;;;;;3.40;3.13;;;;;;;5.55;82.00;99823.72;5076288;28;20032;-72
2021/01/05 02:15:17;;;;;;;4.57;3.45;;;;;;;5.59;82.20;99816.34;5095003;28;20027;-73
2021/01/05 02:17:49;;;;;;;3.75;2.60;;;;;;;5.47;81.91;99828.16;5071275;28;20036;-73
2021/01/05 02:20:36;;;;;;;7.95;3.30;;;;;;;5.52;82.83;99833.47;5076014;28;20073;-72
2021/01/05 02:23:16;;;;;;;4.40;2.80;;;;;;;5.36;83.04;99784.75;5060210;28;20052;-72
2021/01/05 02:26:03;;;;;;;5.90;3.15;;;;;;;5.57;82.06;99815.09;5076776;28;20093;-73
2021/01/05 02:28:44;;;;;;;3.63;2.65;;;;;;;5.63;81.16;99824.78;5076028;28;20028;-73
2021/01/05 02:31:39;;;;;;;2.63;2.42;;;;;;;5.71;81.39;99823.91;5075960;28;20474;-72
2021/01/05 02:34:10;;;;;;;3.55;2.90;;;;;;;5.78;81.35;99833.22;5069929;28;20520;-73
2021/01/05 02:37:00;;;;;;;2.63;2.40;;;;;;;5.56;80.04;99802.44;5075962;28;20054;-72
2021/01/05 02:39:47;;;;;;;5.78;2.80;;;;;;;5.86;79.47;99827.97;5076483;28;20035;-72
2021/01/05 02:42:35;;;;;;;2.70;2.10;;;;;;;6.00;79.87;99834.03;5075810;28;20028;-73
2021/01/05 02:45:25;;;;;;;2.53;2.22;;;;;;;6.11;80.43;99831.63;5076701;28;20024;-73
2021/01/05 02:48:16;;;;;;;4.35;2.20;;;;;;;6.03;80.43;99825.06;5075931;28;20028;-72
2021/01/05 02:51:00;;;;;;;3.30;1.95;;;;;;;5.98;80.67;99819.75;5076094;28;20115;-72
2021/01/05 02:53:37;;;;;;;2.28;2.08;;;;;;;6.00;81.26;99818.25;5075770;28;20036;-73
2021/01/05 02:56:06;;;;;;;1.67;1.52;;;;;;;5.93;79.14;99770.28;5075783;28;20036;-72
2021/01/05 02:58:31;;;;;;;2.30;2.10;;;;;;;6.13;78.64;99810.84;5075752;28;20205;-74
2021/01/05 03:01:16;;;;;;;1.45;1.33;;;;;;;6.03;79.13;99800.22;5077705;28;20537;-74
2021/01/05 03:03:47;;;;;;;;;;;;;;;6.24;78.37;99811.19;5076214;28;20028;-73
2021/01/05 03:06:34;;;;;;;2.63;2.03;;;;;;;6.53;76.13;99807.41;5075703;28;19912;-72
2021/01/05 03:09:13;;;;;;;1.85;1.73;;;;;;;6.46;76.30;99812.72;5075584;28;20028;-73
2021/01/05 03:11:58;;;;;;;4.65;1.92;;;;;;;6.39;78.08;99821.59;5094678;28;20027;-73
2021/01/05 03:14:56;;;;;;;2.55;1.83;;;;;;;6.24;78.61;99817.53;5076179;28;20028;-73
2021/01/05 03:17:33;;;;;;;2.25;2.10;;;;;;;6.27;78.75;99827.88;5075653;28;20028;-73
2021/01/05 03:20:10;;;;;;;4.72;2.50;;;;;;;6.21;79.79;99822.91;5075589;28;20028;-72
2021/01/05 03:22:43;;;;;;;2.33;1.98;;;;;;;6.24;80.74;99839.63;5075637;28;20024;-73
2021/01/05 03:25:10;;;;;;;2.83;2.55;;;;;;;6.27;80.93;99844.44;5076144;28;20025;-73
2021/01/05 03:27:37;;;;;;;3.95;2.65;;;;;;;6.30;81.54;99851.25;5046512;28;20092;-73
2021/01/05 03:30:14;;;;;;;6.28;3.22;;;;;;;6.28;81.99;99843.31;5080008;28;20035;-73
2021/01/05 03:32:39;;;;;;;4.80;2.92;;;;;;;6.21;82.15;99837.53;5079402;28;20028;-72
2021/01/05 03:35:08;;;;;;;2.92;2.08;;;;;;;6.32;82.28;99850.91;5079184;28;20085;-72
2021/01/05 03:37:33;;;;;;;8.45;5.68;;;;;;;6.19;82.47;99845.38;5079470;28;20115;-73
2021/01/05 03:39:59;;;;;;;6.93;4.70;;;;;;;6.19;83.68;99839.84;5075481;28;20617;-73
2021/01/05 03:42:25;;;;;;;7.88;5.65;;;;;;;6.15;82.58;99836.16;5075839;28;20028;-73
2021/01/05 03:44:53;;;;;;;9.50;6.70;;;;;;;6.26;82.45;99831.78;5076284;28;20036;-73
2021/01/05 03:47:19;;;;;;;7.22;5.53;;;;;;;6.27;82.70;99836.16;5075719;28;20078;-73
2021/01/05 03:49:44;;;;;;;3.13;2.47;;;;;;;6.41;81.92;99833.09;5075802;28;20033;-73
2021/01/05 03:52:10;;;;;;;2.45;2.20;;;;;;;6.19;82.09;99839.84;5075811;28;20044;-72
2021/01/05 03:54:36;;;;;;;2.35;2.00;;;;;;;6.28;82.90;99836.97;5076112;28;20036;-73
2021/01/05 03:57:01;;;;;;;6.60;2.83;;;;;;;6.41;82.98;99830.31;5075495;28;20470;-73
2021/01/05 03:59:27;;;;;;;2.10;1.75;;;;;;;6.34;82.68;99832.03;5075443;28;20032;-73
2021/01/05 04:01:53;;;;;;;4.95;3.47;;;;;;;6.25;82.91;99813.59;5075607;28;20029;-73
2021/01/05 04:04:19;;;;;;;3.47;3.08;;;;;;;6.23;84.21;99818.69;5076108;28;20032;-73
2021/01/05 04:06:46;;;;;;;9.07;6.68;;;;;;;6.16;84.64;99821.19;5059632;28;20029;-73
2021/01/05 04:09:11;;;;;;;43.63;32.33;;;;;;;6.14;84.81;99817.97;5059558;28;20119;-73
2021/01/05 04:11:37;;;;;;;47.30;33.92;;;;;;;6.10;85.59;99813.47;5075637;28;20169;-73
2021/01/05 04:14:21;;;;;;;31.63;23.27;;;;;;;6.05;86.06;99814.47;5075200;28;20028;-73
2021/01/05 04:16:47;;;;;;;31.60;20.67;;;;;;;6.04;86.17;99810.91;5075114;28;20021;-73
2021/01/05 04:19:14;;;;;;;26.08;16.67;;;;;;;6.04;86.11;99802.63;5075166;28;20102;-73
2021/01/05 04:21:40;;;;;;;35.25;24.55;;;;;;;6.04;86.84;99801.81;5075877;28;20115;-73
2021/01/05 04:24:06;;;;;;;37.47;22.88;;;;;;;5.97;86.40;99801.59;5074930;28;20123;-73
2021/01/05 04:26:35;;;;;;;24.55;16.33;;;;;;;6.05;86.14;99814.47;5074877;28;20028;-72
2021/01/05 04:29:00;;;;;;;29.63;17.40;;;;;;;5.99;85.52;99816.66;5074842;28;20040;-73
2021/01/05 04:31:26;;;;;;;28.73;17.42;;;;;;;6.04;85.16;99807.34;5074790;28;20021;-73
2021/01/05 04:33:52;;;;;;;26.42;17.60;;;;;;;6.01;85.52;99813.53;5074838;28;20147;-72
2021/01/05 04:36:18;;;;;;;33.17;19.77;;;;;;;6.09;86.15;99804.38;5058367;28;20070;-73
2021/01/05 04:38:44;;;;;;;3.38;3.08;;;;;;;6.10;83.99;99810.69;5074688;28;20108;-73
2021/01/05 04:41:17;;;;;;;5.53;2.95;;;;;;;6.25;83.22;99802.56;5074509;28;20048;-73
2021/01/05 04:43:49;;;;;;;13.15;7.22;;;;;;;6.20;83.29;99807.50;5075307;28;20062;-72
2021/01/05 04:46:15;;;;;;;35.15;19.08;;;;;;;5.98;83.83;99792.94;5042294;28;20127;-73
2021/01/05 04:49:32;;;;;;;55.10;30.20;;;;;;;6.13;84.37;99826.59;5074644;28;20108;-73
2021/01/05 04:52:18;;;;;;;53.95;28.52;;;;;;;6.05;84.95;99822.78;5020000;28;20435;-75
2021/01/05 04:54:56;;;;;;;34.55;20.50;;;;;;;5.81;84.88;99778.50;5081629;28;20032;-73
2021/01/05 04:57:29;;;;;;;48.88;26.40;;;;;;;6.16;85.44;99804.59;5078997;28;20024;-73
2021/01/05 05:00:25;;;;;;;13.68;6.85;;;;;;;6.05;84.38;99797.91;5075638;28;20502;-73
2021/01/05 05:02:57;;;;;;;3.17;1.58;;;;;;;6.12;83.77;99814.72;5071183;28;20036;-73
2021/01/05 05:05:48;;;;;;;3.63;2.13;;;;;;;6.10;84.09;99811.50;5074633;28;20053;-72
2021/01/05 05:08:37;;;;;;;6.82;3.08;;;;;;;6.21;84.68;99806.34;5045862;28;20040;-72
2021/01/05 05:11:17;;;;;;;2.88;1.20;;;;;;;6.30;83.50;99810.63;5074719;28;20079;-73
2021/01/05 05:13:54;;;;;;;1.40;1.30;;;;;;;6.25;83.12;99808.09;5073996;28;20127;-72
2021/01/05 05:16:41;;;;;;;2.05;1.60;;;;;;;6.18;83.96;99794.03;5057468;28;20029;-73
2021/01/05 05:19:20;;;;;;;4.35;1.90;;;;;;;6.26;84.39;99801.41;5073977;28;20073;-72
2021/01/05 05:21:54;;;;;;;5.95;3.05;;;;;;;6.24;84.52;99800.94;5074933;28;20027;-73
2021/01/05 05:24:48;;;;;;;4.32;3.45;;;;;;;6.28;84.36;99812.09;5074710;28;20067;-72
2021/01/05 05:27:19;;;;;;;3.58;3.28;;;;;;;6.37;85.19;99815.56;5074531;28;20021;-73
2021/01/05 05:29:50;;;;;;;3.13;2.83;;;;;;;6.38;84.12;99816.38;5073889;28;20108;-73
2021/01/05 05:32:43;;;;;;;6.78;3.33;;;;;;;6.29;84.75;99817.31;5073497;28;20032;-72
2021/01/05 05:35:14;;;;;;;2.58;1.63;;;;;;;6.35;84.35;99811.56;5062670;28;20062;-72
2021/01/05 05:37:55;;;;;;;1.25;1.15;;;;;;;6.67;81.25;99810.66;5074229;28;20035;-72
2021/01/05 05:40:28;;;;;;;1.55;0.90;;;;;;;6.77;80.78;99821.25;5073385;28;20048;-72
2021/01/05 05:43:13;;;;;;;2.07;1.23;;;;;;;6.64;81.18;99813.28;5073316;28;20029;-73
2021/01/05 05:46:00;;;;;;;2.47;1.38;;;;;;;6.49;82.11;99823.06;5073785;28;20266;-73
2021/01/05 05:48:55;;;;;;;2.50;1.77;;;;;;;6.41;82.47;99818.47;5056334;28;20111;-72
2021/01/05 05:51:37;;;;;;;2.60;1.45;;;;;;;6.51;82.69;99826.31;5059822;28;20465;-72
2021/01/05 05:54:10;;;;;;;2.45;1.00;;;;;;;6.46;82.70;99826.53;5073604;28;20036;-73
2021/01/05 05:56:51;;;;;;;1.90;1.25;;;;;;;6.53;83.01;99822.03;5073604;28;20415;-72
2021/01/05 05:59:20;;;;;;;2.60;1.30;;;;;;;6.44;82.45;99820.53;5072964;28;20098;-72
2021/01/05 06:01:45;;;;;;;0.98;0.98;;;;;;;6.45;83.39;99828.50;5073142;28;20021;-73
2021/01/05 06:04:13;;;;;;;1.90;1.45;;;;;;;6.39;83.55;99818.00;5073188;28;20462;-73
2021/01/05 06:06:48;;;;;;;1.48;1.38;;;;;;;6.37;84.10;99823.88;5073481;28;20063;-73
2021/01/05 06:09:16;;;;;;;1.77;1.60;;;;;;;6.37;84.47;99831.34;5074081;28;20094;-73
2021/01/05 06:11:51;;;;;;;2.08;1.88;;;;;;;6.35;84.32;99822.59;5072780;28;20033;-72
2021/01/05 06:14:17;;;;;;;9.65;3.85;;;;;;;6.41;83.95;99810.97;5073329;28;20028;-74
2021/01/05 06:16:42;;;;;;;3.72;2.72;;;;;;;6.37;83.63;99815.56;5073313;28;20375;-73
2021/01/05 06:19:11;;;;;;;5.13;3.72;;;;;;;6.36;84.46;99818.69;5073216;28;20455;-74
2021/01/05 06:21:37;;;;;;;5.65;3.78;;;;;;;6.36;84.90;99832.50;5072817;28;20071;-73
2021/01/05 06:24:02;;;;;;;3.45;2.13;;;;;;;6.32;84.10;99831.56;5072766;28;20052;-73
2021/01/05 06:26:28;;;;;;;2.75;1.63;;;;;;;6.53;82.21;99835.06;5073283;28;20082;-73
2021/01/05 06:28:53;;;;;;;3.22;2.05;;;;;;;6.50;83.29;99836.56;5074249;28;20032;-73
2021/01/05 06:31:19;;;;;;;2.00;1.75;;;;;;;6.44;83.47;99829.63;5073994;28;20134;-73
2021/01/05 06:33:45;;;;;;;1.63;1.35;;;;;;;6.74;80.95;99823.91;5073886;28;20028;-73
2021/01/05 06:36:10;;;;;;;2.05;1.63;;;;;;;6.62;81.34;99834.97;5073142;28;20395;-73
2021/01/05 06:38:36;;;;;;;1.77;1.50;;;;;;;6.52;82.66;99838.97;5072936;28;20032;-73
2021/01/05 06:41:02;;;;;;;1.75;1.63;;;;;;;6.48;83.75;99851.88;5071693;28;20048;-72
2021/01/05 06:43:28;;;;;;;3.58;2.83;;;;;;;6.52;84.39;99856.38;5071921;28;20032;-73
2021/01/05 06:45:53;;;;;;;3.90;3.35;;;;;;;6.55;84.68;99860.38;5072084;28;20036;-72
2021/01/05 06:48:19;;;;;;;8.38;5.95;;;;;;;6.55;85.42;99860.38;5071975;28;20063;-72
2021/01/05 06:50:45;;;;;;;4.57;2.78;;;;;;;6.42;84.31;99859.56;5071778;28;20113;-73
2021/01/05 06:53:10;;;;;;;8.95;5.70;;;;;;;6.35;84.88;99844.72;5072151;28;20020;-73
2021/01/05 06:55:36;;;;;;;10.85;8.00;;;;;;;6.37;84.90;99859.78;5071915;28;20416;-73
2021/01/05 06:58:02;;;;;;;12.63;8.20;;;;;;;6.47;85.51;99870.41;5071669;28;20483;-73
2021/01/05 07:00:29;;;;;;;12.23;6.78;;;;;;;6.40;85.49;99869.38;5072408;28;20036;-73
2021/01/05 07:02:55;;;;;;;4.78;3.25;;;;;;;6.51;83.34;99868.56;5075683;28;20056;-73
2021/01/05 07:05:22;;;;;;;1.85;1.75;;;;;;;6.60;82.55;99867.66;5075184;28;20029;-72
2021/01/05 07:07:48;;;;;;;2.65;2.13;;;;;;;6.61;83.03;99872.06;5075688;28;20471;-72
2021/01/05 07:10:16;;;;;;;17.92;11.25;;;;;;;6.86;82.67;99875.63;5075265;28;20036;-73
2021/01/05 07:12:43;;;;;;;9.35;4.80;;;;;;;6.83;82.37;99877.94;5074918;28;20025;-72
2021/01/05 07:15:10;;;;;;;8.27;4.03;;;;;;;6.70;82.95;99879.06;5075050;28;20037;-72
2021/01/05 07:17:36;;;;;;;5.47;3.42;;;;;;;6.66;83.05;99877.31;5074874;28;20028;-72
2021/01/05 07:20:04;;;;;;;4.97;3.88;;;;;;;6.68;84.45;99886.09;5074762;28;20039;-72
2021/01/05 07:22:29;;;;;;;5.53;3.58;;;;;;;6.56;84.64;99889.66;5075380;28;20033;-72
2021/01/05 07:24:55;;;;;;;3.03;2.50;;;;;;;6.55;85.13;99882.50;5075021;28;20464;-72
2021/01/05 07:27:21;;;;;;;10.10;6.10;;;;;;;6.57;84.95;99880.22;5074767;28;20028;-73
2021/01/05 07:29:46;;;;;;;7.70;4.10;;;;;;;6.58;85.95;99881.81;5074696;28;20052;-72
2021/01/05 07:32:12;;;;;;;4.78;3.15;;;;;;;6.57;85.96;99869.16;5075139;28;20055;-72
2021/01/05 07:34:38;;;;;;;4.60;3.65;;;;;;;6.59;86.29;99866.84;5074759;28;20412;-72
2021/01/05 07:37:12;;;;;;;11.65;8.50;;;;;;;6.75;85.75;99869.75;5075660;28;20039;-73
2021/01/05 07:39:39;;;;;;;17.67;13.23;;;;;;;6.70;84.84;99870.78;5042264;28;918941;-73
2021/01/05 07:42:17;;;;;;;13.23;11.05;;;;;;;6.73;84.33;99870.09;5066624;28;20068;-73
2021/01/05 07:44:44;;;;;;;7.20;5.45;;;;;;;6.70;84.51;99873.53;5080027;28;20036;-73
2021/01/05 07:47:10;;;;;;;11.48;6.30;;;;;;;6.72;85.14;99871.25;5062694;28;20032;-73
2021/01/05 07:49:36;;;;;;;9.15;7.55;;;;;;;6.73;84.89;99875.63;5079358;28;20467;-73
2021/01/05 07:52:35;;;;;;;8.27;6.82;;;;;;;6.88;85.68;99871.38;5079011;28;20097;-73
2021/01/05 07:55:03;;;;;;;7.68;5.13;;;;;;;6.80;84.95;99870.31;5078626;28;20116;-73
2021/01/05 07:57:29;;;;;;;8.40;4.82;;;;;;;6.93;83.98;99871.16;5063705;28;20382;-73
2021/01/05 07:59:54;;;;;;;10.23;5.35;;;;;;;6.98;83.65;99867.34;5079444;28;20024;-73
2021/01/05 08:02:20;;;;;;;11.98;6.47;;;;;;;7.02;83.95;99862.72;5080672;28;20116;-73
2021/01/05 08:04:45;;;;;;;8.95;6.88;;;;;;;6.90;83.93;99851.66;5085377;28;20031;-73
2021/01/05 08:07:12;;;;;;;8.48;6.55;;;;;;;6.89;85.04;99852.81;5083880;28;20032;-74
2021/01/05 08:09:40;;;;;;;8.18;6.03;;;;;;;6.92;84.90;99863.16;5079452;28;20059;-73
2021/01/05 08:12:18;;;;;;;7.57;5.03;;;;;;;6.93;84.58;99864.81;5078235;28;20020;-73
2021/01/05 08:14:45;;;;;;;7.57;5.15;;;;;;;6.88;85.36;99868.59;5078785;28;20039;-73
2021/01/05 08:17:12;;;;;;;7.43;6.18;;;;;;;6.89;86.21;99886.00;5078344;28;20036;-73
2021/01/05 08:19:41;;;;;;;7.13;5.50;;;;;;;6.75;85.35;99897.38;5061784;28;20040;-73
2021/01/05 08:22:07;;;;;;;6.13;4.65;;;;;;;6.72;86.13;99904.44;5078882;28;20446;-72
2021/01/05 08:24:33;;;;;;;12.65;7.47;;;;;;;6.83;86.39;99910.31;5078494;28;20039;-72
2021/01/05 08:26:58;;;;;;;8.20;6.13;;;;;;;6.79;86.43;99909.38;5078167;28;20123;-73
2021/01/05 08:29:28;;;;;;;9.23;6.63;;;;;;;6.78;86.76;99916.88;5078671;28;20032;-73
2021/01/05 08:31:55;;;;;;;17.95;11.27;;;;;;;6.82;87.00;99909.50;5078862;28;20094;-73
2021/01/05 08:34:20;;;;;;;5.32;3.22;;;;;;;7.07;84.52;99887.38;5078054;28;20032;-73
2021/01/05 08:36:46;;;;;;;5.32;4.40;;;;;;;6.88;84.48;99868.59;5077992;28;20123;-73
2021/01/05 08:39:13;;;;;;;5.82;3.85;;;;;;;6.94;84.18;99872.75;5077605;28;20497;-73
2021/01/05 08:41:43;;;;;;;8.40;7.35;;;;;;;6.79;85.10;99865.16;5077467;28;20052;-73
2021/01/05 08:44:11;;;;;;;19.27;11.63;;;;;;;6.86;83.75;99870.09;5078469;28;20028;-73
2021/01/05 08:46:38;;;;;;;6.13;5.53;;;;;;;6.63;83.03;99834.59;5077811;28;20024;-73
2021/01/05 08:49:05;;;;;;;4.93;4.53;;;;;;;6.89;84.11;99872.97;5061437;28;20348;-74
2021/01/05 08:51:32;;;;;;;7.20;6.53;;;;;;;6.77;84.26;99887.63;5078373;28;20039;-73
2021/01/05 08:53:58;;;;;;;3.60;3.30;;;;;;;6.70;84.33;99881.84;5078433;28;20028;-74
2021/01/05 08:56:29;;;;;;;9.07;6.85;;;;;;;6.78;83.75;99886.47;5078008;28;20036;-73
2021/01/05 08:58:55;;;;;;;32.03;19.40;;;;;;;6.70;84.20;99890.13;5078449;28;20051;-73
2021/01/05 09:01:21;;;;;;;8.68;7.55;;;;;;;6.71;84.52;99891.75;5078033;28;20020;-74
2021/01/05 09:03:47;;;;;;;11.88;9.20;;;;;;;6.69;85.72;99888.53;5078502;28;20031;-73
2021/01/05 09:06:18;;;;;;;5.03;4.53;;;;;;;6.68;85.90;99884.16;5078023;28;20032;-73
2021/01/05 09:08:46;;;;;;;5.88;3.85;;;;;;;6.68;85.97;99881.38;5077494;28;20505;-73
2021/01/05 09:11:25;;;;;;;10.90;6.05;;;;;;;6.65;85.16;99890.34;5077364;28;20031;-72
2021/01/05 09:13:52;;;;;;;6.95;4.68;;;;;;;6.73;84.85;99886.69;5077323;28;20161;-73
2021/01/05 09:16:32;;;;;;;8.02;6.15;;;;;;;6.70;85.11;99886.56;5090480;28;20059;-72
2021/01/05 09:18:59;;;;;;;11.07;3.55;;;;;;;6.78;84.68;99856.03;5077321;28;20020;-73
2021/01/05 09:21:27;;;;;;;6.85;4.40;;;;;;;6.66;85.20;99875.41;5077192;28;20028;-72
2021/01/05 09:23:54;;;;;;;4.13;3.00;;;;;;;6.65;86.50;99876.53;5076469;28;20408;-73
2021/01/05 09:26:27;;;;;;;7.55;5.40;;;;;;;6.61;86.80;99872.84;5076558;28;20039;-72
2021/01/05 09:28:53;;;;;;;5.75;4.80;;;;;;;6.68;86.52;99864.78;5076993;28;20389;-71
2021/01/05 09:31:19;;;;;;;7.07;4.35;;;;;;;6.74;85.95;99863.41;5076964;28;20111;-72
2021/01/05 09:33:45;;;;;;;11.18;7.60;;;;;;;7.02;85.81;99852.44;5076680;28;20035;-72
2021/01/05 09:36:13;;;;;;;8.35;6.13;;;;;;;7.14;85.12;99864.66;5076870;28;20478;-72
2021/01/05 09:38:40;;;;;;;5.68;3.67;;;;;;;7.14;85.49;99865.50;5076859;28;20122;-72
2021/01/05 09:41:07;;;;;;;4.53;4.10;;;;;;;7.13;85.05;99852.78;5076468;28;20055;-72
2021/01/05 09:43:33;;;;;;;4.82;4.32;;;;;;;7.24;85.20;99851.16;5076579;28;20055;-71
2021/01/05 09:45:58;;;;;;;9.43;4.68;;;;;;;7.42;84.74;99853.69;5076748;28;20056;-72
2021/01/05 09:48:24;;;;;;;7.47;5.60;;;;;;;7.59;84.88;99845.88;5076350;28;20505;-73
2021/01/05 09:50:50;;;;;;;9.00;7.10;;;;;;;7.78;84.67;99845.25;5076458;28;20032;-73
2021/01/05 09:53:16;;;;;;;9.63;7.45;;;;;;;8.01;84.33;99833.63;5076760;28;20482;-72
2021/01/05 09:55:42;;;;;;;16.20;11.25;;;;;;;8.13;82.00;99834.34;5076583;28;20071;-72
2021/01/05 09:58:08;;;;;;;14.40;10.45;;;;;;;8.48;81.09;99835.69;5077232;28;20032;-73
2021/01/05 10:00:34;;;;;;;18.42;13.73;;;;;;;9.55;78.75;99824.28;5059933;28;20470;-72
2021/01/05 10:02:59;;;;;;;6.20;5.35;;;;;;;9.77;74.35;99826.34;5076126;28;20549;-73
2021/01/05 10:05:25;;;;;;;6.53;5.00;;;;;;;9.83;73.96;99819.31;5077322;28;20062;-73
2021/01/05 10:07:51;;;;;;;11.27;9.95;;;;;;;9.95;75.38;99791.34;5077534;28;20378;-73
2021/01/05 10:10:21;;;;;;;15.27;10.82;;;;;;;10.68;73.89;99813.72;5076285;28;20024;-73
2021/01/05 10:12:47;;;;;;;13.27;10.95;;;;;;;10.90;73.48;99804.53;5094110;28;20042;-72
2021/01/05 10:15:15;;;;;;;8.63;7.03;;;;;;;10.96;70.76;99794.69;5076421;28;20409;-73
2021/01/05 10:17:46;;;;;;;6.38;4.50;;;;;;;10.25;70.05;99785.19;5076715;28;20032;-72
2021/01/05 10:20:15;;;;;;;5.95;4.70;;;;;;;10.31;69.61;99782.91;5076975;28;20016;-73
2021/01/05 10:22:40;;;;;;;6.50;5.85;;;;;;;10.04;70.37;99757.78;5075446;28;20067;-72
2021/01/05 10:25:09;;;;;;;22.60;14.40;;;;;;;9.76;71.14;99758.06;5076401;28;20109;-72
2021/01/05 10:27:36;;;;;;;11.82;6.32;;;;;;;9.47;72.43;99761.44;5072641;28;20028;-72
2021/01/05 10:30:10;;;;;;;11.25;7.07;;;;;;;9.22;74.12;99770.06;5076755;28;20028;-73
2021/01/05 10:32:36;;;;;;;10.35;8.00;;;;;;;9.04;75.34;99757.75;5094318;28;20107;-73
2021/01/05 10:35:03;;;;;;;8.93;6.22;;;;;;;9.02;75.38;99757.31;5076191;28;20555;-73
2021/01/05 10:37:29;;;;;;;10.93;8.20;;;;;;;9.00;77.02;99767.97;5075566;28;20048;-73
2021/01/05 10:39:55;;;;;;;12.07;8.43;;;;;;;8.91;77.79;99801.47;5076452;28;20124;-73
2021/01/05 10:42:20;;;;;;;9.23;6.93;;;;;;;8.87;78.56;99804.16;5076101;28;20030;-73
2021/01/05 10:44:46;;;;;;;11.35;9.05;;;;;;;8.67;79.39;99780.28;5075868;28;20024;-73
2021/01/05 10:47:14;;;;;;;9.38;5.63;;;;;;;8.53;78.42;99786.31;5076313;28;20047;-72
2021/01/05 10:49:41;;;;;;;6.85;4.85;;;;;;;8.52;76.65;99789.41;5075906;28;20020;-73
2021/01/05 10:52:13;;;;;;;5.50;3.95;;;;;;;8.57;76.41;99776.09;5076716;28;20455;-72
2021/01/05 10:54:39;;;;;;;9.52;4.00;;;;;;;8.64;76.50;99776.28;5075907;28;20063;-72
2021/01/05 10:57:06;;;;;;;7.95;5.13;;;;;;;8.68;77.57;99776.34;5093494;28;20052;-73
2021/01/05 10:59:32;;;;;;;8.55;5.05;;;;;;;8.76;77.17;99767.03;5075837;28;20024;-73
2021/01/05 11:02:02;;;;;;;7.22;5.15;;;;;;;8.78;76.24;99745.28;5076041;28;20463;-72
2021/01/05 11:04:28;;;;;;;5.65;3.85;;;;;;;8.92;75.01;99747.56;5075813;28;20032;-72
2021/01/05 11:06:57;;;;;;;12.25;7.95;;;;;;;9.06;75.55;99745.13;5075810;28;20020;-72
2021/01/05 11:09:24;;;;;;;6.10;3.50;;;;;;;9.17;72.36;99742.59;5076651;28;20028;-73
2021/01/05 11:12:02;;;;;;;11.05;4.82;;;;;;;9.35;73.64;99738.19;5075805;28;20085;-73
2021/01/05 11:14:28;;;;;;;6.72;5.45;;;;;;;9.55;73.01;99729.88;5077769;28;20051;-73
2021/01/05 11:16:57;;;;;;;12.45;7.32;;;;;;;9.67;72.03;99724.94;5096765;28;20025;-74
2021/01/05 11:19:23;;;;;;;14.55;4.82;;;;;;;9.87;71.31;99705.47;5079291;28;20024;-73
2021/01/05 11:21:52;;;;;;;7.28;3.40;;;;;;;10.11;70.05;99704.28;5077581;28;20132;-73
2021/01/05 11:24:19;;;;;;;16.42;5.68;;;;;;;10.23;69.89;99709.66;5076358;28;20035;-72
2021/01/05 11:26:45;;;;;;;4.40;2.42;;;;;;;10.30;70.04;99707.03;5075528;28;20115;-73
2021/01/05 11:29:11;;;;;;;10.75;5.13;;;;;;;10.39;69.28;99706.78;5076093;28;20020;-73
2021/01/05 11:31:37;;;;;;;10.43;3.90;;;;;;;10.39;69.24;99710.34;5075299;28;20389;-73
2021/01/05 11:34:03;;;;;;;5.18;3.35;;;;;;;10.37;68.34;99690.44;5075033;28;20031;-73
2021/01/05 11:36:30;;;;;;;4.60;3.05;;;;;;;10.36;69.07;99705.53;5075366;28;20028;-73
2021/01/05 11:38:57;;;;;;;9.50;5.05;;;;;;;9.89;71.80;99717.81;5076042;28;20411;-72
2021/01/05 11:41:31;;;;;;;9.70;5.85;;;;;;;9.38;74.78;99698.59;5071607;28;20453;-72
2021/01/05 11:43:58;;;;;;;6.95;5.45;;;;;;;9.19;75.64;99691.06;5071939;28;20467;-73
2021/01/05 11:46:24;;;;;;;13.93;9.55;;;;;;;8.99;76.63;99697.78;5072884;28;20078;-72
2021/01/05 11:48:50;;;;;;;11.35;8.52;;;;;;;8.79;77.12;99693.38;5076252;28;20370;-72
2021/01/05 11:51:25;;;;;;;13.18;9.85;;;;;;;8.68;78.48;99693.13;5075647;28;20127;-73